Time;durP1;ratioP1;P1;durP2;ratioP2;P2;SDS_P1;SDS_P2;PMS_P1;PMS_P2;Temp;Humidity;BMP_temperature;BMP_pressure;BME280_temperature;BME280_humidity;BME280_pressure;Samples;Min_cycle;Max_cycle;Signal;HPM_P1;HPM_P2
2022/07/23 00:01:23;;;;;;;0.10;0.10;;;11.70;99.90;;;;;;5054427;28;20044;-88
2022/07/23 00:03:51;;;;;;;0.05;0.05;;;11.70;99.90;;;;;;5039250;28;20043;-88
2022/07/23 00:06:17;;;;;;;0.00;0.00;;;11.70;99.90;;;;;;5039707;28;20051;-87
2022/07/23 00:08:43;;;;;;;0.20;0.20;;;11.70;99.90;;;;;;5056218;28;20368;-88
2022/07/23 00:11:09;;;;;;;0.10;0.10;;;11.70;99.90;;;;;;5055546;28;20047;-87
2022/07/23 00:13:35;;;;;;;0.10;0.10;;;11.80;99.90;;;;;;5039344;28;20450;-86
2022/07/23 00:16:00;;;;;;;0.00;0.00;;;11.80;99.90;;;;;;5059109;28;20452;-85
2022/07/23 00:18:26;;;;;;;0.00;0.00;;;11.80;99.90;;;;;;5075972;28;20044;-86
2022/07/23 00:20:52;;;;;;;0.10;0.10;;;11.90;99.90;;;;;;5059153;28;20094;-85
2022/07/23 00:23:17;;;;;;;0.20;0.20;;;11.90;99.90;;;;;;5069257;28;20072;-85
2022/07/23 00:25:44;;;;;;;0.03;0.03;;;11.90;99.90;;;;;;5051502;28;20033;-86
2022/07/23 00:28:11;;;;;;;0.13;0.13;;;11.90;99.90;;;;;;5035955;28;20048;-86
2022/07/23 00:30:37;;;;;;;0.25;0.25;;;11.80;99.90;;;;;;5035586;28;20053;-83
2022/07/23 00:33:05;;;;;;;0.30;0.30;;;11.70;99.90;;;;;;5019554;28;20040;-83
2022/07/23 00:35:35;;;;;;;0.00;0.00;;;11.70;99.90;;;;;;5035754;28;20438;-83
2022/07/23 00:38:01;;;;;;;0.10;0.10;;;11.60;99.90;;;;;;5035714;28;20080;-83
2022/07/23 00:40:28;;;;;;;0.00;0.00;;;11.60;99.90;;;;;;5035324;28;20131;-82
2022/07/23 00:42:54;;;;;;;0.10;0.10;;;11.50;99.90;;;;;;5019264;28;20041;-83
2022/07/23 00:45:20;;;;;;;0.10;0.10;;;11.50;99.90;;;;;;5035351;28;20505;-83
2022/07/23 00:47:46;;;;;;;0.30;0.30;;;11.60;99.90;;;;;;5035756;28;20510;-86
2022/07/23 00:50:13;;;;;;;0.20;0.20;;;11.50;99.90;;;;;;5035272;28;20037;-86
2022/07/23 00:52:39;;;;;;;0.10;0.10;;;11.40;99.90;;;;;;5018940;28;20483;-86
2022/07/23 00:55:06;;;;;;;0.20;0.13;;;11.50;99.90;;;;;;5035245;28;20040;-86
2022/07/23 00:57:33;;;;;;;0.00;0.00;;;11.40;99.90;;;;;;5038552;28;20186;-86
2022/07/23 00:59:58;;;;;;;0.10;0.10;;;11.30;99.90;;;;;;5054562;28;20048;-85
2022/07/23 01:02:28;;;;;;;0.15;0.15;;;11.30;99.90;;;;;;5075229;28;20036;-85
2022/07/23 01:04:54;;;;;;;0.35;0.32;;;11.20;99.90;;;;;;5075202;28;20485;-81
2022/07/23 01:07:20;;;;;;;0.20;0.20;;;11.20;99.90;;;;;;5075079;28;20044;-81
2022/07/23 01:09:46;;;;;;;0.10;0.10;;;11.20;99.90;;;;;;5075158;28;20044;-81
2022/07/23 01:12:12;;;;;;;0.10;0.10;;;11.20;99.90;;;;;;5075375;28;20131;-81
2022/07/23 01:14:38;;;;;;;0.10;0.10;;;11.20;99.90;;;;;;5057766;28;20052;-81
2022/07/23 01:17:04;;;;;;;0.10;0.10;;;11.10;99.90;;;;;;5051628;28;20049;-81
2022/07/23 01:19:30;;;;;;;0.20;0.20;;;11.10;99.90;;;;;;5051726;28;20067;-81
2022/07/23 01:21:58;;;;;;;0.30;0.30;;;11.00;99.90;;;;;;5018577;28;20083;-82
2022/07/23 01:24:24;;;;;;;0.00;0.00;;;11.00;99.90;;;;;;5051553;28;20045;-82
2022/07/23 01:26:50;;;;;;;0.00;0.00;;;11.00;99.90;;;;;;5022635;28;20103;-83
2022/07/23 01:29:16;;;;;;;0.10;0.10;;;10.90;99.90;;;;;;5031758;28;20472;-83
2022/07/23 01:31:43;;;;;;;0.10;0.10;;;10.90;99.90;;;;;;5031616;28;20091;-82
2022/07/23 01:34:09;;;;;;;0.10;0.10;;;10.80;99.90;;;;;;5015209;28;20484;-83
2022/07/23 01:36:37;;;;;;;0.20;0.20;;;10.90;99.90;;;;;;5031856;28;20045;-82
2022/07/23 01:39:04;;;;;;;0.55;0.22;;;10.70;99.90;;;;;;5035460;28;20403;-83
2022/07/23 01:41:30;;;;;;;0.00;0.00;;;10.70;99.90;;;;;;5035517;28;20160;-82
2022/07/23 01:43:56;;;;;;;0.10;0.10;;;10.70;99.90;;;;;;5052273;28;20045;-82
2022/07/23 01:46:22;;;;;;;0.15;0.15;;;10.70;99.90;;;;;;5035452;28;20045;-83
2022/07/23 01:48:48;;;;;;;1.20;0.22;;;10.60;99.90;;;;;;5019054;28;20176;-83
2022/07/23 01:51:14;;;;;;;0.20;0.20;;;10.60;99.90;;;;;;5018575;28;20033;-83
2022/07/23 01:53:40;;;;;;;0.20;0.20;;;10.60;99.90;;;;;;5018895;28;20052;-83
2022/07/23 01:56:06;;;;;;;0.10;0.10;;;10.60;99.90;;;;;;5035268;28;20034;-83
2022/07/23 01:58:31;;;;;;;0.10;0.10;;;10.50;99.90;;;;;;5035383;28;20103;-83
2022/07/23 02:00:57;;;;;;;0.10;0.10;;;10.50;99.90;;;;;;5033674;28;20037;-83
2022/07/23 02:03:23;;;;;;;0.00;0.00;;;10.40;99.90;;;;;;4998659;28;20049;-83
2022/07/23 02:05:49;;;;;;;0.10;0.10;;;10.40;99.90;;;;;;4998780;28;20038;-83
2022/07/23 02:08:15;;;;;;;0.10;0.10;;;10.40;99.90;;;;;;5015119;28;20042;-82
2022/07/23 02:10:41;;;;;;;0.20;0.20;;;10.30;99.90;;;;;;4998746;28;20034;-85
2022/07/23 02:13:07;;;;;;;0.00;0.00;;;10.30;99.90;;;;;;5015084;28;20099;-85
2022/07/23 02:15:33;;;;;;;0.10;0.10;;;10.40;99.90;;;;;;5047458;28;20049;-85
2022/07/23 02:17:59;;;;;;;0.10;0.10;;;10.40;99.90;;;;;;5054602;28;20499;-85
2022/07/23 02:20:25;;;;;;;0.10;0.10;;;10.30;99.90;;;;;;5054481;28;20044;-86
2022/07/23 02:22:51;;;;;;;0.10;0.10;;;10.30;99.90;;;;;;5054567;28;20509;-85
2022/07/23 02:25:16;;;;;;;0.00;0.00;;;10.30;99.90;;;;;;5038092;28;20130;-85
2022/07/23 02:27:42;;;;;;;0.10;0.10;;;10.30;99.90;;;;;;5054582;28;20036;-81
2022/07/23 02:30:08;;;;;;;0.90;0.55;;;10.50;99.90;;;;;;5054381;28;20076;-81
2022/07/23 02:32:35;;;;;;;0.10;0.10;;;10.30;99.90;;;;;;5054303;28;20036;-81
2022/07/23 02:35:01;;;;;;;0.05;0.05;;;10.30;99.90;;;;;;5054615;28;20048;-81
2022/07/23 02:37:27;;;;;;;0.25;0.25;;;10.20;99.90;;;;;;5054069;28;20135;-81
2022/07/23 02:39:53;;;;;;;0.10;0.10;;;10.90;99.90;;;;;;5004909;28;20127;-81
2022/07/23 02:42:18;;;;;;;0.00;0.00;;;10.20;99.90;;;;;;5054016;28;20045;-81
2022/07/23 02:44:44;;;;;;;0.10;0.10;;;10.50;99.90;;;;;;5037780;28;20125;-81
2022/07/23 02:47:10;;;;;;;0.30;0.30;;;10.20;99.90;;;;;;5037721;28;20052;-81
2022/07/23 02:49:36;;;;;;;0.17;0.17;;;10.10;99.90;;;;;;5053980;28;20483;-81
2022/07/23 02:52:01;;;;;;;0.10;0.10;;;10.10;99.90;;;;;;5016625;28;20400;-81
2022/07/23 02:54:27;;;;;;;0.10;0.10;;;10.00;99.90;;;;;;5017701;28;20041;-81
2022/07/23 02:56:53;;;;;;;0.00;0.00;;;10.00;99.90;;;;;;5033811;28;20072;-81
2022/07/23 02:59:19;;;;;;;0.10;0.10;;;10.20;99.90;;;;;;5034015;28;20077;-81
2022/07/23 03:01:45;;;;;;;0.08;0.08;;;10.00;99.90;;;;;;5016220;28;20483;-81
2022/07/23 03:04:12;;;;;;;0.10;0.10;;;10.00;99.90;;;;;;5016982;28;20042;-81
2022/07/23 03:06:37;;;;;;;0.20;0.20;;;10.00;99.90;;;;;;5033610;28;20037;-81
2022/07/23 03:09:04;;;;;;;0.10;0.10;;;10.00;99.90;;;;;;5017229;28;20044;-81
2022/07/23 03:11:30;;;;;;;0.20;0.20;;;10.00;99.90;;;;;;5033655;28;20511;-81
2022/07/23 03:13:56;;;;;;;0.00;0.00;;;10.00;99.90;;;;;;5039020;28;20037;-82
2022/07/23 03:16:22;;;;;;;0.00;0.00;;;10.00;99.90;;;;;;5060648;28;20040;-85
2022/07/23 03:18:48;;;;;;;0.32;0.32;;;10.10;99.90;;;;;;5076804;28;20047;-85
2022/07/23 03:21:13;;;;;;;0.03;0.03;;;10.10;99.90;;;;;;5076574;28;20118;-85
2022/07/23 03:23:39;;;;;;;0.00;0.00;;;10.10;99.90;;;;;;5076620;28;20075;-85
2022/07/23 03:26:05;;;;;;;0.10;0.10;;;10.10;99.90;;;;;;5069990;28;20032;-85
2022/07/23 03:28:31;;;;;;;0.38;0.20;;;10.10;99.90;;;;;;5040069;28;20072;-85
2022/07/23 03:30:56;;;;;;;0.10;0.10;;;10.10;99.90;;;;;;5056537;28;20036;-85
2022/07/23 03:33:23;;;;;;;0.10;0.10;;;10.10;99.90;;;;;;5056909;28;20036;-83
2022/07/23 03:35:49;;;;;;;0.30;0.30;;;10.10;99.90;;;;;;5056256;28;20079;-83
2022/07/23 03:38:15;;;;;;;0.00;0.00;;;10.10;99.90;;;;;;5056478;28;20073;-83
2022/07/23 03:40:41;;;;;;;0.20;0.20;;;10.10;99.90;;;;;;5039677;28;20040;-83
2022/07/23 03:43:07;;;;;;;0.10;0.10;;;10.10;99.90;;;;;;5039545;28;20048;-83
2022/07/23 03:45:33;;;;;;;0.00;0.00;;;10.00;99.90;;;;;;5039666;28;20040;-83
2022/07/23 03:48:00;;;;;;;0.00;0.00;;;10.00;99.90;;;;;;5056321;28;20074;-83
2022/07/23 03:50:26;;;;;;;0.00;0.00;;;10.10;99.90;;;;;;5056355;28;20036;-81
2022/07/23 03:52:51;;;;;;;0.55;0.20;;;10.10;99.90;;;;;;5039906;28;20040;-81
2022/07/23 03:55:17;;;;;;;0.20;0.20;;;11.00;99.90;;;;;;5056160;28;20513;-81
2022/07/23 03:57:43;;;;;;;0.20;0.20;;;10.30;99.90;;;;;;5055977;28;20048;-81
2022/07/23 04:00:10;;;;;;;0.20;0.20;;;10.40;99.90;;;;;;5054463;28;20040;-81
2022/07/23 04:02:37;;;;;;;0.03;0.03;;;10.40;99.90;;;;;;5055779;28;20163;-81
2022/07/23 04:05:04;;;;;;;0.10;0.10;;;11.20;99.90;;;;;;5039031;28;20037;-81
2022/07/23 04:07:30;;;;;;;0.10;0.10;;;10.50;99.90;;;;;;5056117;28;20033;-85
2022/07/23 04:09:56;;;;;;;0.10;0.10;;;10.60;99.90;;;;;;5055899;28;20036;-85
2022/07/23 04:12:21;;;;;;;0.10;0.10;;;10.60;99.90;;;;;;5055978;28;20050;-85
2022/07/23 04:14:47;;;;;;;0.00;0.00;;;10.70;99.90;;;;;;5065973;28;20056;-85
2022/07/23 04:17:13;;;;;;;0.10;0.10;;;10.80;99.90;;;;;;5059062;28;20529;-85
2022/07/23 04:19:43;;;;;;;0.10;0.10;;;10.90;99.90;;;;;;5075748;28;20036;-85
2022/07/23 04:22:10;;;;;;;0.10;0.10;;;10.90;99.90;;;;;;5075790;28;20047;-85
2022/07/23 04:24:36;;;;;;;0.00;0.00;;;11.00;99.90;;;;;;5075789;28;20398;-81
2022/07/23 04:27:02;;;;;;;0.30;0.30;;;11.10;99.90;;;;;;5061157;28;20040;-81
2022/07/23 04:29:28;;;;;;;0.35;0.30;;;11.20;99.90;;;;;;5055893;28;20036;-81
2022/07/23 04:31:53;;;;;;;0.13;0.13;;;11.20;99.90;;;;;;5055241;28;20548;-81
2022/07/23 04:34:19;;;;;;;0.10;0.10;;;11.30;99.90;;;;;;5055499;28;20051;-81
2022/07/23 04:36:45;;;;;;;0.10;0.10;;;11.30;99.90;;;;;;5055398;28;20098;-81
2022/07/23 04:39:11;;;;;;;0.00;0.00;;;11.30;99.90;;;;;;5072080;28;20127;-81
2022/07/23 04:41:36;;;;;;;0.10;0.10;;;11.30;99.90;;;;;;5055314;28;20131;-88
2022/07/23 04:44:02;;;;;;;0.30;0.30;;;11.40;99.90;;;;;;5055354;28;20047;-88
2022/07/23 04:46:28;;;;;;;0.00;0.00;;;11.50;99.90;;;;;;5055428;28;20040;-88
2022/07/23 04:48:54;;;;;;;0.75;0.20;;;11.60;99.90;;;;;;5055353;28;20055;-88
2022/07/23 04:51:20;;;;;;;0.10;0.10;;;11.60;99.90;;;;;;5055173;28;20036;-88
2022/07/23 04:53:46;;;;;;;0.15;0.15;;;11.60;99.90;;;;;;5038747;28;20049;-88
2022/07/23 04:56:11;;;;;;;0.10;0.10;;;11.70;99.90;;;;;;5038729;28;20044;-88
2022/07/23 04:58:37;;;;;;;0.10;0.10;;;11.70;99.90;;;;;;5055276;28;20067;-83
2022/07/23 05:01:03;;;;;;;0.20;0.20;;;11.70;99.90;;;;;;5037155;28;20040;-83
2022/07/23 05:03:29;;;;;;;0.10;0.10;;;11.80;99.90;;;;;;5054857;28;20049;-83
2022/07/23 05:05:54;;;;;;;0.10;0.10;;;11.80;99.90;;;;;;5054744;28;20051;-83
2022/07/23 05:08:20;;;;;;;0.25;0.25;;;11.90;99.90;;;;;;5038608;28;20040;-83
2022/07/23 05:10:46;;;;;;;0.43;0.43;;;12.00;99.90;;;;;;5038905;28;20131;-83
2022/07/23 05:13:14;;;;;;;0.03;0.03;;;12.10;99.90;;;;;;5040992;28;20044;-83
2022/07/23 05:15:39;;;;;;;0.00;0.00;;;12.10;99.90;;;;;;5076347;28;20086;-83
2022/07/23 05:18:05;;;;;;;0.05;0.05;;;12.30;99.90;;;;;;5079764;28;20478;-82
2022/07/23 05:20:31;;;;;;;0.25;0.20;;;12.50;99.90;;;;;;5062428;28;20048;-83
2022/07/23 05:22:56;;;;;;;0.00;0.00;;;12.70;99.90;;;;;;5063277;28;20059;-83
2022/07/23 05:25:22;;;;;;;0.00;0.00;;;12.90;99.90;;;;;;5058200;28;20089;-83
2022/07/23 05:27:48;;;;;;;0.05;0.05;;;13.10;99.90;;;;;;5038988;28;20041;-83
2022/07/23 05:30:13;;;;;;;0.10;0.10;;;13.30;99.90;;;;;;5039289;28;20056;-82
2022/07/23 05:32:39;;;;;;;0.00;0.00;;;14.10;99.90;;;;;;5022611;28;20175;-82
2022/07/23 05:35:06;;;;;;;0.15;0.15;;;15.20;99.90;;;;;;5022694;28;20048;-82
2022/07/23 05:37:32;;;;;;;0.10;0.10;;;17.00;99.90;;;;;;5022296;28;20128;-82
2022/07/23 05:40:07;;;;;;;0.20;0.20;;;18.00;99.90;;;;;;5039068;28;20072;-82
2022/07/23 05:42:33;;;;;;;0.10;0.10;;;18.60;99.90;;;;;;5038614;28;20033;-82
2022/07/23 05:44:59;;;;;;;0.25;0.25;;;18.80;99.90;;;;;;5022435;28;20048;-82
2022/07/23 05:47:25;;;;;;;0.25;0.25;;;19.10;99.90;;;;;;5038665;28;20033;-84
2022/07/23 05:49:50;;;;;;;0.00;0.00;;;18.90;99.90;;;;;;5038640;28;20491;-84
2022/07/23 05:52:16;;;;;;;0.10;0.10;;;18.70;99.90;;;;;;5022352;28;20049;-84
2022/07/23 05:54:42;;;;;;;0.05;0.05;;;19.00;99.90;;;;;;5022110;28;20507;-83
2022/07/23 05:57:07;;;;;;;0.28;0.28;;;20.40;99.90;;;;;;5030708;28;20040;-84
2022/07/23 05:59:33;;;;;;;0.10;0.10;;;20.90;99.90;;;;;;5038513;28;20047;-84
2022/07/23 06:01:59;;;;;;;0.10;0.10;;;21.70;99.90;;;;;;5037046;28;20045;-84
2022/07/23 06:04:24;;;;;;;0.10;0.10;;;22.10;99.90;;;;;;5021703;28;20475;-84
2022/07/23 06:06:50;;;;;;;0.10;0.10;;;22.80;99.90;;;;;;5038055;28;20090;-85
2022/07/23 06:09:16;;;;;;;0.35;0.35;;;23.00;99.90;;;;;;5038449;28;20297;-85
2022/07/23 06:11:41;;;;;;;0.10;0.10;;;23.40;99.90;;;;;;5049842;28;20070;-85
2022/07/23 06:14:07;;;;;;;0.00;0.00;;;23.90;99.90;;;;;;5062638;28;20060;-85
2022/07/23 06:16:33;;;;;;;0.10;0.10;;;24.30;99.90;;;;;;5078270;28;20474;-85
2022/07/23 06:18:59;;;;;;;0.00;0.00;;;24.40;99.90;;;;;;5078054;28;20421;-85
2022/07/23 06:21:25;;;;;;;0.10;0.10;;;24.40;98.20;;;;;;5078060;28;20032;-87
2022/07/23 06:23:50;;;;;;;0.08;0.08;;;24.90;97.30;;;;;;5060910;28;20474;-88
2022/07/23 06:26:16;;;;;;;0.10;0.10;;;25.10;97.40;;;;;;5044580;28;20036;-88
2022/07/23 06:28:42;;;;;;;0.17;0.10;;;25.40;95.90;;;;;;5061392;28;20127;-88
2022/07/23 06:31:07;;;;;;;0.10;0.10;;;25.60;96.90;;;;;;5061114;28;20554;-88
2022/07/23 06:33:33;;;;;;;0.30;0.30;;;26.00;96.20;;;;;;5061200;28;20043;-88
2022/07/23 06:35:59;;;;;;;0.22;0.22;;;26.30;96.30;;;;;;5077621;28;20043;-88
2022/07/23 06:38:25;;;;;;;0.05;0.05;;;26.40;94.60;;;;;;5060957;28;20052;-88
2022/07/23 06:40:51;;;;;;;0.17;0.17;;;26.60;93.40;;;;;;5060981;28;20043;-88
2022/07/23 06:43:17;;;;;;;0.15;0.15;;;26.70;94.30;;;;;;5077560;28;20046;-88
2022/07/23 06:45:42;;;;;;;0.10;0.10;;;26.90;93.30;;;;;;5060712;28;20048;-88
2022/07/23 06:48:08;;;;;;;0.75;0.20;;;27.70;92.10;;;;;;5077501;28;20047;-88
2022/07/23 06:50:34;;;;;;;0.10;0.10;;;27.60;92.30;;;;;;5060654;28;20036;-89
2022/07/23 06:53:00;;;;;;;0.10;0.10;;;27.80;91.80;;;;;;5077489;28;20173;-86
2022/07/23 06:55:26;;;;;;;0.10;0.10;;;28.00;91.60;;;;;;5077347;28;20036;-86
2022/07/23 06:57:52;;;;;;;0.10;0.10;;;28.00;90.60;;;;;;5058803;28;20119;-86
2022/07/23 07:00:17;;;;;;;0.13;0.13;;;28.20;89.80;;;;;;5039167;28;20123;-85
2022/07/23 07:02:43;;;;;;;0.32;0.22;;;28.40;88.40;;;;;;5023776;28;20037;-86
2022/07/23 07:05:09;;;;;;;0.10;0.10;;;28.80;84.70;;;;;;5040302;28;20094;-86
2022/07/23 07:07:35;;;;;;;0.10;0.10;;;28.80;86.00;;;;;;5040482;28;20560;-86
2022/07/23 07:10:04;;;;;;;0.10;0.10;;;29.00;85.10;;;;;;5057067;28;20036;-84
2022/07/23 07:12:30;;;;;;;0.10;0.10;;;29.20;82.70;;;;;;5057162;28;20052;-84
2022/07/23 07:14:56;;;;;;;0.10;0.10;;;29.30;83.50;;;;;;5051107;28;20421;-84
2022/07/23 07:17:22;;;;;;;0.40;0.35;;;29.40;81.90;;;;;;5043974;28;20194;-84
2022/07/23 07:19:48;;;;;;;0.17;0.17;;;29.70;86.30;;;;;;5060539;28;20127;-84
2022/07/23 07:22:13;;;;;;;0.63;0.20;;;30.20;82.50;;;;;;5059972;28;20391;-84
2022/07/23 07:24:39;;;;;;;0.00;0.00;;;30.40;79.80;;;;;;5060135;28;20090;-84
2022/07/23 07:27:05;;;;;;;0.10;0.10;;;29.70;78.10;;;;;;5045165;28;20375;-86
2022/07/23 07:29:31;;;;;;;0.20;0.20;;;28.70;78.30;;;;;;5040118;28;20033;-86
2022/07/23 07:31:56;;;;;;;0.10;0.10;;;27.70;80.30;;;;;;5073150;28;20538;-86
2022/07/23 07:34:22;;;;;;;0.38;0.38;;;26.40;82.70;;;;;;5056425;28;20040;-85
2022/07/23 07:36:48;;;;;;;0.10;0.10;;;25.80;81.90;;;;;;5056269;28;20040;-86
2022/07/23 07:39:14;;;;;;;0.10;0.10;;;25.10;83.20;;;;;;5056648;28;20386;-86
2022/07/23 07:41:40;;;;;;;0.10;0.10;;;24.90;85.20;;;;;;5039664;28;20036;-85
2022/07/23 07:44:05;;;;;;;0.08;0.08;;;24.80;85.70;;;;;;5056703;28;20055;-85
2022/07/23 07:46:31;;;;;;;0.00;0.00;;;25.10;87.10;;;;;;5039711;28;20032;-86
2022/07/23 07:48:57;;;;;;;0.00;0.00;;;25.30;85.80;;;;;;5056553;28;20051;-85
2022/07/23 07:51:22;;;;;;;0.03;0.03;;;25.20;85.40;;;;;;5055928;28;20478;-85
2022/07/23 07:53:48;;;;;;;0.10;0.10;;;25.10;87.60;;;;;;5039712;28;20044;-85
2022/07/23 07:56:13;;;;;;;0.10;0.10;;;25.00;85.30;;;;;;5055986;28;20040;-85
2022/07/23 07:58:39;;;;;;;0.55;0.55;;;25.00;85.40;;;;;;5056284;28;20040;-85
2022/07/23 08:01:05;;;;;;;0.20;0.20;;;24.80;86.00;;;;;;5038030;28;20105;-84
2022/07/23 08:03:30;;;;;;;0.15;0.15;;;25.10;84.90;;;;;;5039281;28;20044;-83
2022/07/23 08:05:56;;;;;;;0.17;0.17;;;25.00;87.10;;;;;;5055884;28;20509;-84
2022/07/23 08:08:22;;;;;;;0.10;0.10;;;24.80;85.00;;;;;;5055888;28;20072;-84
2022/07/23 08:10:48;;;;;;;0.10;0.10;;;24.60;87.20;;;;;;5022796;28;20040;-83
2022/07/23 08:13:15;;;;;;;0.08;0.08;;;24.10;84.80;;;;;;5039106;28;20105;-84
2022/07/23 08:15:42;;;;;;;0.10;0.10;;;23.70;85.50;;;;;;5072771;28;20063;-83
2022/07/23 08:18:07;;;;;;;0.20;0.20;;;23.20;88.60;;;;;;5059097;28;20135;-90
2022/07/23 08:20:33;;;;;;;0.17;0.17;;;22.50;89.70;;;;;;5075648;28;20122;-89
2022/07/23 08:23:04;;;;;;;0.00;0.00;;;22.40;90.60;;;;;;5075631;28;20040;-89
2022/07/23 08:25:37;;;;;;;0.10;0.10;;;22.20;90.40;;;;;;5074266;28;20048;-90
2022/07/23 08:28:05;;;;;;;0.10;0.10;;;21.90;90.70;;;;;;5055914;28;20045;-89
2022/07/23 08:30:31;;;;;;;0.00;0.00;;;21.80;91.10;;;;;;5062953;22;20056;-83
2022/07/23 08:33:03;;;;;;;0.47;0.47;;;21.80;91.50;;;;;;5039129;28;20078;-84
2022/07/23 08:35:31;;;;;;;0.05;0.05;;;21.70;96.70;;;;;;5055725;28;20413;-83
2022/07/23 08:37:59;;;;;;;0.10;0.10;;;21.70;91.90;;;;;;5038903;28;20036;-83
2022/07/23 08:40:30;;;;;;;0.03;0.03;;;21.70;91.40;;;;;;5038598;28;20032;-83
2022/07/23 08:42:56;;;;;;;0.00;0.00;;;21.80;92.10;;;;;;5055367;28;20041;-83
2022/07/23 08:45:23;;;;;;;0.10;0.10;;;21.90;92.20;;;;;;5038638;28;20039;-83
2022/07/23 08:47:54;;;;;;;0.10;0.10;;;21.90;91.60;;;;;;5038506;28;20040;-83
2022/07/23 08:50:21;;;;;;;0.00;0.00;;;21.90;92.30;;;;;;5038996;28;20071;-89
2022/07/23 08:52:49;;;;;;;0.00;0.00;;;21.90;92.40;;;;;;5055546;28;20127;-89
2022/07/23 08:55:17;;;;;;;0.03;0.03;;;21.90;93.00;;;;;;5038636;28;20131;-89
2022/07/23 08:57:42;;;;;;;0.00;0.00;;;21.80;91.90;;;;;;5055131;28;20076;-89
2022/07/23 09:00:09;;;;;;;0.10;0.10;;;21.50;91.90;;;;;;5052375;28;20075;-89
2022/07/23 09:02:40;;;;;;;0.10;0.10;;;21.40;92.60;;;;;;5018867;28;20041;-89
2022/07/23 09:05:06;;;;;;;0.00;0.00;;;21.30;93.10;;;;;;5018982;28;20033;-89
2022/07/23 09:07:32;;;;;;;0.10;0.10;;;21.40;93.10;;;;;;5035426;28;20107;-87
2022/07/23 09:10:09;;;;;;;0.00;0.00;;;21.60;92.70;;;;;;5018877;28;20037;-87
2022/07/23 09:12:34;;;;;;;0.00;0.00;;;21.40;92.80;;;;;;5035467;28;20048;-87
2022/07/23 09:15:05;;;;;;;0.00;0.00;;;21.50;92.80;;;;;;5030521;28;20444;-87
2022/07/23 09:17:38;;;;;;;0.10;0.10;;;21.50;93.60;;;;;;5038466;28;20071;-87
2022/07/23 09:20:22;;;;;;;0.13;0.13;;;21.70;93.40;;;;;;5055266;28;20044;-87
2022/07/23 09:22:49;;;;;;;0.13;0.13;;;22.10;92.60;;;;;;5038500;28;20503;-87
2022/07/23 09:25:17;;;;;;;0.10;0.10;;;23.10;92.20;;;;;;5038604;28;20048;-83
2022/07/23 09:27:55;;;;;;;0.08;0.08;;;25.20;93.00;;;;;;5038191;28;20041;-83
2022/07/23 09:30:23;;;;;;;0.10;0.10;;;26.40;91.40;;;;;;5037943;28;20049;-84
2022/07/23 09:33:15;;;;;;;0.10;0.10;;;27.00;86.20;;;;;;5038818;28;20048;-84
2022/07/23 09:35:55;;;;;;;0.10;0.10;;;27.10;88.20;;;;;;5038248;28;20482;-83
2022/07/23 09:38:23;;;;;;;0.13;0.13;;;28.00;88.40;;;;;;5054847;28;20048;-83
2022/07/23 09:41:10;;;;;;;0.03;0.03;;;29.50;85.20;;;;;;5054806;28;20496;-88
2022/07/23 09:43:36;;;;;;;0.03;0.03;;;30.50;85.20;;;;;;5054950;28;20040;-88
2022/07/23 09:46:26;;;;;;;0.17;0.17;;;29.70;83.00;;;;;;5055230;28;20085;-88
2022/07/23 09:48:58;;;;;;;0.73;0.10;;;28.20;82.40;;;;;;5055094;28;20040;-88
2022/07/23 09:53:56;;;;;;;0.10;0.10;;;26.30;86.30;;;;;;5055103;28;20049;-87
2022/07/23 09:56:23;;;;;;;0.10;0.10;;;26.00;86.90;;;;;;5054626;28;20047;-86
2022/07/23 09:59:33;;;;;;;0.15;0.15;;;25.60;89.50;;;;;;5039658;28;20052;-85
2022/07/23 10:01:39;;;;;;;0.03;0.03;;;25.20;88.90;;;;;;5040629;28;20083;-89
2022/07/23 10:04:07;;;;;;;0.00;0.00;;;24.90;90.00;;;;;;5058228;28;20048;-89
2022/07/23 10:06:33;;;;;;;0.03;0.03;;;24.90;90.60;;;;;;5058162;28;20044;-89
2022/07/23 10:09:01;;;;;;;0.10;0.10;;;25.30;90.60;;;;;;5058242;28;20037;-89
2022/07/23 10:11:28;;;;;;;0.08;0.08;;;25.30;90.00;;;;;;5058325;28;20123;-90
2022/07/23 10:14:02;;;;;;;0.00;0.00;;;25.20;90.30;;;;;;5055316;28;20072;-88
2022/07/23 10:16:28;;;;;;;0.00;0.00;;;25.00;90.20;;;;;;5038232;28;20076;-87
2022/07/23 10:18:54;;;;;;;0.35;0.35;;;24.80;90.40;;;;;;5022018;28;20479;-88
2022/07/23 10:21:47;;;;;;;0.13;0.13;;;24.50;91.00;;;;;;5039052;28;20040;-87
2022/07/23 10:24:38;;;;;;;0.03;0.03;;;24.30;91.10;;;;;;5033341;28;20052;-87
2022/07/23 10:27:38;;;;;;;0.10;0.10;;;24.10;91.20;;;;;;5041068;28;20047;-87
2022/07/23 10:30:04;;;;;;;0.00;0.00;;;23.50;91.50;;;;;;5054390;28;20515;-87
2022/07/23 10:33:10;;;;;;;0.00;0.00;;;23.10;92.10;;;;;;5054399;28;20045;-87
2022/07/23 10:35:43;;;;;;;0.10;0.10;;;23.00;92.80;;;;;;5037788;28;20045;-86
2022/07/23 10:38:37;;;;;;;0.20;0.20;;;23.00;92.90;;;;;;5054426;28;20068;-87
2022/07/23 10:41:04;;;;;;;0.00;0.00;;;23.00;93.00;;;;;;5054545;28;20033;-87
2022/07/23 10:43:31;;;;;;;0.00;0.00;;;24.50;93.70;;;;;;5054244;28;20124;-87
2022/07/23 10:49:25;;;;;;;1.10;0.95;;;25.60;90.80;;;;;;5033477;28;20132;-85
2022/07/23 10:52:28;;;;;;;0.00;0.00;;;26.00;90.80;;;;;;5037585;28;20041;-85
2022/07/23 10:55:16;;;;;;;0.00;0.00;;;25.40;90.80;;;;;;5054149;28;20063;-85
2022/07/23 10:57:51;;;;;;;0.00;0.00;;;24.70;91.40;;;;;;5053826;28;20041;-85
2022/07/23 11:00:22;;;;;;;0.20;0.10;;;24.90;92.10;;;;;;5035921;28;20582;-86
2022/07/23 11:02:50;;;;;;;0.10;0.10;;;26.50;91.50;;;;;;5020811;28;20037;-86
2022/07/23 11:05:18;;;;;;;0.00;0.00;;;28.20;91.00;;;;;;5053894;28;20068;-84
2022/07/23 11:08:03;;;;;;;0.10;0.10;;;29.00;87.90;;;;;;5037180;28;20072;-84
2022/07/23 11:10:37;;;;;;;0.10;0.10;;;28.30;85.40;;;;;;5052213;28;20534;-84
2022/07/23 11:13:21;;;;;;;0.03;0.03;;;27.40;87.80;;;;;;5053690;28;20061;-84
2022/07/23 11:16:05;;;;;;;0.10;0.10;;;27.20;89.10;;;;;;5053447;28;20513;-84
2022/07/23 11:18:40;;;;;;;0.10;0.10;;;28.00;90.00;;;;;;5053667;28;20049;-84
2022/07/23 11:21:26;;;;;;;0.35;0.35;;;28.80;87.50;;;;;;5053411;28;20442;-86
2022/07/23 11:24:07;;;;;;;0.10;0.10;;;29.30;87.00;;;;;;5053392;28;20049;-86
2022/07/23 11:26:48;;;;;;;0.00;0.00;;;29.60;84.90;;;;;;5053269;28;20033;-86
2022/07/23 11:29:26;;;;;;;0.00;0.00;;;29.50;83.90;;;;;;5054883;28;20035;-86
2022/07/23 11:31:59;;;;;;;0.32;0.32;;;29.40;82.70;;;;;;5056804;28;20048;-86
2022/07/23 11:34:32;;;;;;;0.17;0.17;;;29.40;84.40;;;;;;5039175;28;20047;-86
2022/07/23 11:36:59;;;;;;;0.00;0.00;;;28.90;81.40;;;;;;5056804;28;20127;-89
2022/07/23 11:39:27;;;;;;;0.00;0.00;;;28.20;84.50;;;;;;5056469;28;20044;-88
2022/07/23 11:41:54;;;;;;;0.00;0.00;;;27.70;84.40;;;;;;5056241;28;20037;-89
2022/07/23 11:44:37;;;;;;;0.20;0.20;;;27.90;85.80;;;;;;5040098;28;20032;-89
2022/07/23 11:47:11;;;;;;;0.10;0.10;;;29.00;86.60;;;;;;5056587;28;20040;-89
2022/07/23 11:49:37;;;;;;;0.00;0.00;;;29.50;83.50;;;;;;5056650;28;20036;-89
2022/07/23 11:52:04;;;;;;;0.10;0.10;;;29.90;82.40;;;;;;5039553;28;20041;-89
2022/07/23 11:54:30;;;;;;;0.08;0.08;;;30.20;82.90;;;;;;5056205;28;20501;-89
2022/07/23 11:56:57;;;;;;;0.17;0.17;;;30.10;82.20;;;;;;5039473;28;20089;-89
2022/07/23 11:59:26;;;;;;;0.10;0.10;;;30.30;80.40;;;;;;5056133;28;20040;-89
2022/07/23 12:02:04;;;;;;;0.10;0.10;;;30.70;81.50;;;;;;5039232;28;20045;-89
2022/07/23 12:04:40;;;;;;;0.05;0.05;;;30.60;80.20;;;;;;5035976;28;20037;-89
2022/07/23 12:07:29;;;;;;;0.20;0.17;;;30.40;80.30;;;;;;5036291;28;20037;-89
2022/07/23 12:09:56;;;;;;;0.13;0.13;;;30.10;81.00;;;;;;5019907;28;20048;-86
2022/07/23 12:12:22;;;;;;;0.10;0.10;;;30.00;80.50;;;;;;5019944;28;20398;-85
2022/07/23 12:14:57;;;;;;;0.10;0.10;;;29.40;80.10;;;;;;5029479;28;20052;-85
2022/07/23 12:17:31;;;;;;;0.17;0.17;;;29.60;83.20;;;;;;5039288;28;20165;-85
2022/07/23 12:19:58;;;;;;;0.52;0.52;;;29.60;81.20;;;;;;5039328;28;20032;-85
2022/07/23 12:22:26;;;;;;;0.10;0.10;;;29.50;79.40;;;;;;5038853;28;20036;-83
2022/07/23 12:25:05;;;;;;;4.38;0.30;;;28.80;80.60;;;;;;5039006;28;20040;-83
2022/07/23 12:27:31;;;;;;;0.30;0.30;;;28.50;81.20;;;;;;5055607;28;20040;-83
2022/07/23 12:29:57;;;;;;;0.10;0.10;;;28.40;81.40;;;;;;5038888;28;20063;-83
2022/07/23 12:32:28;;;;;;;0.00;0.00;;;28.20;83.00;;;;;;5055786;28;20406;-83
2022/07/23 12:35:12;;;;;;;0.13;0.13;;;27.70;82.60;;;;;;5039239;28;20082;-82
2022/07/23 12:37:40;;;;;;;0.28;0.28;;;27.40;83.10;;;;;;5038980;28;20040;-83
2022/07/23 12:40:21;;;;;;;0.00;0.00;;;27.10;83.40;;;;;;5055713;28;20437;-83
2022/07/23 12:42:53;;;;;;;0.00;0.00;;;26.90;84.30;;;;;;5038985;28;20482;-85
2022/07/23 12:45:20;;;;;;;0.10;0.10;;;26.80;85.50;;;;;;5039081;28;20041;-89
2022/07/23 12:48:01;;;;;;;0.10;0.10;;;27.30;85.70;;;;;;5038791;28;20041;-89
2022/07/23 12:50:31;;;;;;;0.80;0.75;;;27.60;84.70;;;;;;5055309;28;20382;-89
2022/07/23 12:53:08;;;;;;;0.15;0.15;;;27.50;84.40;;;;;;5055563;28;20063;-88
2022/07/23 12:55:36;;;;;;;0.10;0.10;;;27.30;83.70;;;;;;5055128;28;20498;-88
2022/07/23 12:58:11;;;;;;;0.10;0.10;;;27.60;84.30;;;;;;5055642;28;20048;-89
2022/07/23 13:01:10;;;;;;;0.67;0.67;;;28.30;85.00;;;;;;5048435;28;20044;-84